Meshima, Japan

7:33 AM JST on September 20, 2014 (GMT +0900)
Fukue | Change Station
CLOSE
Current Station
Airport
Location: Fukue,
Elevation: 262 ft
Nearby Weather Stations

Elev 262 ft 32.67 °N, 128.83 °E | Updated 14 hours ago

Rain
Rain
70 °F
Feels Like 70 °F
N
17
Wind Variable Wind from NE
Gusts mph

Today
High -- | Low -- °F
--% Chance of Precip.
Yesterday
High -- | Low -- °F
Precip. -- in
6:13 AM 6:26 PM
Waning Crescent, 16% visible
Pressure 29.86 in
Visibility 5.6 miles
Clouds Few 800 ft
Scattered Clouds 5000 ft
Mostly Cloudy 8000 ft
Dew Point 64 °F
Humidity 81%
Rainfall 0.00 in
Snow Depth Not available.
UV 1 out of 12
Pollen Not available.
Air Quality Not available.
Flu Activity Not available.
SPECI RJFE 190807Z 01008KT 310V050 9000 RA FEW008 SCT050 BKN080 18/16 Q1011 RMK 1ST008 4SC050 6AC080 A2987

More Conditions Fewer Conditions

Pressure 29.86 in
Visibility 5.6 miles
Clouds Few 800 ft
Scattered Clouds 5000 ft
Mostly Cloudy 8000 ft
Dew Point 64 °F
Humidity 81%
Rainfall 0.00 in
Snow Depth Not available.
UV 1 out of 12
Pollen Not available.
Air Quality Not available.
Flu Activity Not available.
SPECI RJFE 190807Z 01008KT 310V050 9000 RA FEW008 SCT050 BKN080 18/16 Q1011 RMK 1ST008 4SC050 6AC080 A2987

More Conditions Fewer Conditions

10-Day Weather Forecast

Almanac

Astronomy

Sep. 20, 2014 Rise Set
Actual Time 6:13 AM JST 6:26 PM JST
Civil Twilight 5:48 AM JST 6:51 PM JST
Nautical Twilight 5:20 AM JST 7:19 PM JST
Astronomical Twilight 4:51 AM JST 7:48 PM JST
Moon 2:30 AM JST (9/20) 3:59 PM JST (9/20)
Length of Visible Light 13h 02m
Length of Day
12h 13m
Tomorrow will be 1m 57s shorter.
Waning Crescent, 16% of the Moon is Illuminated
Sep 19
Waning Crescent
Sep 24
New
Oct 1
First Quarter
Oct 8
Full
Oct 15
Last Quarter

Yesterday's Extremes

Country Highs Country Lows

Community

WunderPhotos

Upload Photos

1,754,721 photos uploaded!

WunderBlogs® & News

By Dr. Jeff Masters
Director of Meteorology, Weather Underground
By Kari Strenfel
Meteorologist, Weather Underground
By Christopher C. Burt
Weather Historian, Weather Underground
September 19, 2014
September 19, 2014
September 19, 2014

Nearby

Snow Depth

Not available.

Earthquake Activity

City Distance Mag. Time & Date
No recent earthquake activity has been reported nearby.
Minimum magnitude displayed is 2.5.

Coastal Water Temperatures

Place Temperature
No Stations Reporting

Nearby Weather Stations